createdAt,value
2023-04-05T00:02:00.411Z,98987.69
2023-04-05T00:04:28.676Z,98981.59
2023-04-05T00:06:57.405Z,98985.16
2023-04-05T00:09:24.079Z,98981.59
2023-04-05T00:11:50.672Z,98974.63
2023-04-05T00:14:17.412Z,98981.69
2023-04-05T00:16:44.067Z,98981.69
2023-04-05T00:19:13.741Z,98978.19
2023-04-05T00:21:40.625Z,98979.13
2023-04-05T00:24:09.338Z,98971.22
2023-04-05T00:26:36.319Z,98976.50
2023-04-05T00:29:03.044Z,98970.41
2023-04-05T00:31:30.578Z,98970.41
2023-04-05T00:33:57.710Z,98966.94
2023-04-05T00:36:24.328Z,98974.81
2023-04-05T00:38:50.858Z,98970.41
2023-04-05T00:41:17.506Z,98968.69
2023-04-05T00:43:44.247Z,98965.13
2023-04-05T00:46:11.049Z,98966.06
2023-04-05T00:48:38.436Z,98964.44
2023-04-05T00:51:09.358Z,98966.06
2023-04-05T00:53:37.443Z,98961.72
2023-04-05T00:56:04.705Z,98957.25
2023-04-05T00:58:31.978Z,98955.53
2023-04-05T01:01:06.581Z,98961.50
2023-04-05T01:03:35.750Z,98956.13
2023-04-05T01:06:09.894Z,98960.41
2023-04-05T01:08:56.984Z,98951.50
2023-04-05T01:11:26.288Z,98953.94
2023-04-05T01:13:59.499Z,98952.94
2023-04-05T01:16:27.198Z,98946.16
2023-04-05T01:18:56.586Z,98959.75
2023-04-05T01:21:37.994Z,98952.59
2023-04-05T01:24:32.295Z,98951.56
2023-04-05T01:27:16.448Z,98954.97
2023-04-05T01:30:08.793Z,98950.56
2023-04-05T01:32:46.497Z,98950.41
2023-04-05T01:35:24.661Z,98946.75
2023-04-05T01:37:57.587Z,98940.56
2023-04-05T01:40:24.768Z,98950.97
2023-04-05T01:42:51.381Z,98942.16
2023-04-05T01:45:17.978Z,98943.00
2023-04-05T01:47:44.583Z,98937.66
2023-04-05T01:50:11.466Z,98939.34
2023-04-05T01:52:38.130Z,98942.84
2023-04-05T01:55:04.997Z,98940.31
2023-04-05T01:57:31.551Z,98934.84
2023-04-05T01:59:58.231Z,98939.19
2023-04-05T02:02:24.912Z,98939.19
2023-04-05T02:04:51.532Z,98939.19
2023-04-05T02:07:18.070Z,98932.13
2023-04-05T02:09:44.647Z,98932.06
2023-04-05T02:12:12.645Z,98934.69
2023-04-05T02:14:39.271Z,98936.41
2023-04-05T02:17:05.906Z,98933.78
2023-04-05T02:19:37.161Z,98930.19
2023-04-05T02:22:03.912Z,98933.66
2023-04-05T02:24:30.424Z,98929.25
2023-04-05T02:26:57.497Z,98931.03
2023-04-05T02:29:24.554Z,98921.34
2023-04-05T02:31:51.151Z,98920.50
2023-04-05T02:34:17.755Z,98917.78
2023-04-05T02:36:44.566Z,98926.50
2023-04-05T02:39:11.337Z,98911.59
2023-04-05T02:41:38.199Z,98916.75
2023-04-05T02:44:04.870Z,98915.00
2023-04-05T02:46:31.792Z,98925.53
2023-04-05T02:48:59.266Z,98917.53
2023-04-05T02:51:28.623Z,98909.63
2023-04-05T02:53:55.563Z,98913.00
2023-04-05T02:56:22.197Z,98889.03
2023-04-05T02:58:49.360Z,98901.56
2023-04-05T03:01:22.605Z,98902.41
2023-04-05T03:03:49.671Z,98910.22
2023-04-05T03:06:16.236Z,98901.38
2023-04-05T03:08:49.024Z,98904.81
2023-04-05T03:11:20.866Z,98901.28
2023-04-05T03:13:51.721Z,98891.88
2023-04-05T03:16:47.319Z,98899.38
2023-04-05T03:19:26.240Z,98902.84
2023-04-05T03:21:59.306Z,98906.34
2023-04-05T03:24:31.176Z,98901.91
2023-04-05T03:27:06.082Z,98903.59
2023-04-05T03:29:39.945Z,98909.75
2023-04-05T03:32:14.007Z,98908.78
2023-04-05T03:34:47.177Z,98907.84
2023-04-05T03:37:15.876Z,98906.91
2023-04-05T03:39:48.538Z,98911.25
2023-04-05T03:42:16.517Z,98910.38
2023-04-05T03:44:44.272Z,98909.44
2023-04-05T03:47:13.110Z,98915.59
2023-04-05T03:49:41.087Z,98913.78
2023-04-05T03:52:08.595Z,98912.03
2023-04-05T03:54:35.474Z,98909.38
2023-04-05T03:57:03.003Z,98914.56
2023-04-05T03:59:31.189Z,98915.41
2023-04-05T04:02:00.011Z,98907.50
2023-04-05T04:04:28.113Z,98903.09
2023-04-05T04:06:56.397Z,98902.13
2023-04-05T04:09:25.131Z,98911.00
2023-04-05T04:11:51.836Z,98902.13
2023-04-05T04:14:21.216Z,98900.38
2023-04-05T04:16:56.481Z,98882.66
2023-04-05T04:19:51.978Z,98906.47
2023-04-05T04:22:41.254Z,98904.75
2023-04-05T04:25:18.793Z,98902.13
2023-04-05T04:28:01.576Z,98903.00
2023-04-05T04:31:04.866Z,98912.59
2023-04-05T04:33:50.319Z,98910.81
2023-04-05T04:36:39.400Z,98918.69
2023-04-05T04:39:27.387Z,98915.13
2023-04-05T04:42:23.782Z,98923.03
2023-04-05T04:45:02.648Z,98919.47
2023-04-05T04:47:42.195Z,98911.84
2023-04-05T04:50:19.973Z,98923.81
2023-04-05T04:52:47.604Z,98936.03
2023-04-05T04:55:14.326Z,98927.53
2023-04-05T04:57:42.173Z,98930.78
2023-04-05T05:00:13.413Z,98925.50
2023-04-05T05:02:40.675Z,98910.13
2023-04-05T05:05:07.952Z,98924.53
2023-04-05T05:07:35.746Z,98929.75
2023-04-05T05:10:03.866Z,98932.81
2023-04-05T05:12:31.570Z,98935.03
2023-04-05T05:14:58.113Z,98935.03
2023-04-05T05:17:25.984Z,98935.03
2023-04-05T05:19:54.669Z,98935.84
2023-04-05T05:22:22.441Z,98941.13
2023-04-05T05:24:49.025Z,98941.94
2023-04-05T05:27:15.769Z,98942.81
2023-04-05T05:29:42.267Z,98940.28
2023-04-05T05:32:09.340Z,98934.06
2023-04-05T05:34:37.297Z,98939.50
2023-04-05T05:37:04.257Z,98939.31
2023-04-05T05:39:30.873Z,98930.59
2023-04-05T05:41:57.592Z,98930.59
2023-04-05T05:44:24.094Z,98912.97
2023-04-05T05:46:50.642Z,98924.47
2023-04-05T05:49:17.450Z,98907.50
2023-04-05T05:51:44.010Z,98927.84
2023-04-05T05:54:10.583Z,98926.16
2023-04-05T05:56:37.434Z,98927.13
2023-04-05T05:59:07.465Z,98934.00
2023-04-05T06:01:38.264Z,98934.81
2023-04-05T06:04:11.102Z,98931.34
2023-04-05T06:06:38.038Z,98932.19
2023-04-05T06:09:04.701Z,98940.09
2023-04-05T06:11:31.273Z,98933.06
2023-04-05T06:13:57.846Z,98932.09
2023-04-05T06:16:27.402Z,98932.09
2023-04-05T06:18:56.099Z,98932.97
2023-04-05T06:21:22.973Z,98925.50
2023-04-05T06:23:49.714Z,98938.13
2023-04-05T06:26:22.985Z,98935.50
2023-04-05T06:28:50.156Z,98936.34
2023-04-05T06:33:44.432Z,98930.13
2023-04-05T06:36:11.669Z,98933.63
2023-04-05T06:38:38.438Z,98937.97
2023-04-05T06:41:05.393Z,98932.69
2023-04-05T06:43:32.262Z,98930.06
2023-04-05T06:46:01.060Z,98937.00
2023-04-05T06:48:29.338Z,98937.88
2023-04-05T06:51:00.708Z,98931.34
2023-04-05T06:53:28.496Z,98934.31
2023-04-05T06:55:56.052Z,98927.50
2023-04-05T06:58:29.375Z,98928.09
2023-04-05T07:00:56.243Z,98935.03
2023-04-05T07:03:22.865Z,98922.06
2023-04-05T07:05:59.893Z,98928.44
2023-04-05T07:08:28.218Z,98936.66
2023-04-05T07:10:55.324Z,98932.25
2023-04-05T07:13:24.486Z,98823.47
2023-04-05T07:15:51.899Z,98932.16
2023-04-05T07:18:19.514Z,98907.47
2023-04-05T07:20:49.441Z,98923.41
2023-04-05T07:23:16.610Z,98917.38
2023-04-05T07:25:43.884Z,98920.41
2023-04-05T07:28:10.623Z,98928.22
2023-04-05T07:30:37.647Z,98930.75
2023-04-05T07:33:04.825Z,98922.84
2023-04-05T07:35:31.611Z,98921.25
2023-04-05T07:37:58.280Z,98908.44
2023-04-05T07:40:27.797Z,98924.47
2023-04-05T07:42:54.708Z,98928.88
2023-04-05T07:45:21.397Z,98906.72
2023-04-05T07:47:48.015Z,98933.22
2023-04-05T07:50:15.199Z,98915.22
2023-04-05T07:52:42.781Z,98918.72
2023-04-05T07:55:10.083Z,98922.69
2023-04-05T07:57:37.695Z,98926.34
2023-04-05T08:00:10.231Z,98922.69
2023-04-05T08:02:40.014Z,98924.47
2023-04-05T08:05:06.907Z,98927.09
2023-04-05T08:07:33.500Z,98914.47
2023-04-05T08:10:00.506Z,98927.09
2023-04-05T08:12:27.448Z,98902.41
2023-04-05T08:14:54.322Z,98930.50
2023-04-05T08:17:21.072Z,98929.56
2023-04-05T08:19:49.343Z,98926.06
2023-04-05T08:22:17.746Z,98917.31
2023-04-05T08:24:47.410Z,98912.88
2023-04-05T08:27:14.011Z,98916.38
2023-04-05T08:29:40.560Z,98909.50
2023-04-05T08:32:07.206Z,98913.66
2023-04-05T08:34:33.800Z,98911.88
2023-04-05T08:37:00.634Z,98917.06
2023-04-05T08:39:27.404Z,98908.28
2023-04-05T08:42:18.237Z,98904.72
2023-04-05T08:44:47.576Z,98908.22
2023-04-05T08:47:18.994Z,98897.06
2023-04-05T08:49:46.172Z,98882.66
2023-04-05T08:52:12.930Z,98912.53
2023-04-05T08:54:40.524Z,98899.34
2023-04-05T08:57:10.399Z,98904.44
2023-04-05T08:59:40.783Z,98884.75
2023-04-05T09:02:14.863Z,98893.91
2023-04-05T09:04:44.932Z,98897.47
2023-04-05T09:07:14.229Z,98892.97
2023-04-05T09:09:44.193Z,98838.81
2023-04-05T09:12:11.283Z,98872.34
2023-04-05T09:14:38.665Z,98885.78
2023-04-05T09:17:09.623Z,98891.84
2023-04-05T09:19:36.387Z,98884.97
2023-04-05T09:22:07.773Z,98888.25
2023-04-05T09:24:44.764Z,98900.59
2023-04-05T09:27:17.256Z,98883.25
2023-04-05T09:29:47.744Z,98895.25
2023-04-05T09:32:15.374Z,98896.06
2023-04-05T09:34:43.522Z,98882.53
2023-04-05T09:37:22.121Z,98876.50
2023-04-05T09:39:51.717Z,98895.13
2023-04-05T09:42:24.708Z,98894.31
2023-04-05T09:44:51.288Z,98898.63
2023-04-05T09:47:20.324Z,98896.84
2023-04-05T09:49:51.840Z,98894.19
2023-04-05T09:52:19.366Z,98902.94
2023-04-05T09:54:45.925Z,98898.91
2023-04-05T09:57:12.730Z,98900.31
2023-04-05T09:59:40.128Z,98903.81
2023-04-05T10:02:07.136Z,98900.31
2023-04-05T10:04:43.913Z,98895.91
2023-04-05T10:07:15.749Z,98893.38
2023-04-05T10:09:44.343Z,98870.34
2023-04-05T10:12:16.418Z,98884.97
2023-04-05T10:14:43.030Z,98898.44
2023-04-05T10:17:14.887Z,98898.44
2023-04-05T10:20:08.845Z,98888.81
2023-04-05T10:22:41.438Z,98889.59
2023-04-05T10:25:35.958Z,98883.44
2023-04-05T10:28:10.680Z,98882.63
2023-04-05T10:30:47.484Z,98877.34
2023-04-05T10:33:26.179Z,98877.25
2023-04-05T10:36:17.362Z,98853.81
2023-04-05T10:39:21.736Z,98862.28
2023-04-05T10:41:52.687Z,98857.03
2023-04-05T10:44:26.403Z,98853.44
2023-04-05T10:46:55.198Z,98838.47
2023-04-05T10:49:39.209Z,98842.81
2023-04-05T10:52:07.051Z,98847.97
2023-04-05T10:54:36.632Z,98832.75
2023-04-05T10:57:09.024Z,98849.69
2023-04-05T10:59:42.156Z,98835.84
2023-04-05T11:02:09.778Z,98850.50
2023-04-05T11:04:38.764Z,98847.88
2023-04-05T11:07:17.895Z,98827.63
2023-04-05T11:10:01.659Z,98847.97
2023-04-05T11:12:46.656Z,98845.34
2023-04-05T11:15:29.247Z,98847.13
2023-04-05T11:18:06.568Z,98852.41
2023-04-05T11:20:57.811Z,98856.91
2023-04-05T11:23:25.725Z,98857.75
2023-04-05T11:25:55.993Z,98861.25
2023-04-05T11:28:31.792Z,98859.56
2023-04-05T11:31:12.869Z,98857.75
2023-04-05T11:33:42.222Z,98864.00
2023-04-05T11:36:09.927Z,98833.19
2023-04-05T11:38:37.177Z,98860.41
2023-04-05T11:43:27.901Z,98848.81
2023-04-05T11:45:54.721Z,98848.06
2023-04-05T11:48:22.352Z,98849.59
2023-04-05T11:50:51.014Z,98823.88
2023-04-05T11:53:18.215Z,98850.38
2023-04-05T11:55:51.104Z,98850.28
2023-04-05T11:58:23.188Z,98847.63
2023-04-05T12:01:07.719Z,98852.72
2023-04-05T12:03:37.916Z,98844.22
2023-04-05T12:06:06.132Z,98838.25
2023-04-05T12:08:39.386Z,98854.31
2023-04-05T12:11:08.952Z,98850.75
2023-04-05T12:13:36.459Z,98854.22
2023-04-05T12:16:06.006Z,98857.63
2023-04-05T12:18:37.035Z,98850.53
2023-04-05T12:21:07.519Z,98843.47
2023-04-05T12:23:35.886Z,98849.50
2023-04-05T12:26:04.422Z,98843.31
2023-04-05T12:28:56.433Z,98846.69
2023-04-05T12:31:45.951Z,98830.38
2023-04-05T12:34:14.612Z,98836.03
2023-04-05T12:36:46.061Z,98843.84
2023-04-05T12:39:12.650Z,98834.91
2023-04-05T12:41:39.925Z,98838.41
2023-04-05T12:44:30.562Z,98833.03
2023-04-05T12:47:07.612Z,98842.53
2023-04-05T12:49:38.035Z,98838.09
2023-04-05T12:52:07.719Z,98833.69
2023-04-05T12:54:34.541Z,98835.38
2023-04-05T12:57:04.318Z,98837.91
2023-04-05T12:59:30.995Z,98834.44
2023-04-05T13:01:57.564Z,98841.31
2023-04-05T13:04:26.211Z,98836.09
2023-04-05T13:06:52.741Z,98830.84
2023-04-05T13:09:19.292Z,98839.41
2023-04-05T13:11:45.818Z,98830.53
2023-04-05T13:14:12.540Z,98822.75
2023-04-05T13:16:39.067Z,98832.16
2023-04-05T13:19:05.671Z,98834.72
2023-04-05T13:24:08.612Z,98828.38
2023-04-05T13:28:50.907Z,98822.91
2023-04-05T13:31:17.661Z,98840.44
2023-04-05T13:33:44.292Z,98833.34
2023-04-05T13:36:12.523Z,98796.75
2023-04-05T13:38:39.368Z,98825.34
2023-04-05T13:41:06.137Z,98824.38
2023-04-05T13:43:32.662Z,98833.06
2023-04-05T13:45:59.447Z,98834.88
2023-04-05T13:48:25.992Z,98831.28
2023-04-05T13:50:52.574Z,98830.31
2023-04-05T13:53:19.112Z,98828.53
2023-04-05T13:55:45.671Z,98833.72
2023-04-05T13:58:14.122Z,98818.00
2023-04-05T14:00:41.092Z,98808.78
2023-04-05T14:03:07.968Z,98807.84
2023-04-05T14:05:34.824Z,98818.66
2023-04-05T14:08:01.375Z,98828.91
2023-04-05T14:10:27.938Z,98822.59
2023-04-05T14:12:54.423Z,98818.13
2023-04-05T14:15:21.540Z,98818.91
2023-04-05T14:17:48.044Z,98820.50
2023-04-05T14:20:14.805Z,98826.50
2023-04-05T14:22:41.476Z,98823.78
2023-04-05T14:25:08.433Z,98822.09
2023-04-05T14:27:37.580Z,98819.44
2023-04-05T14:30:04.800Z,98816.03
2023-04-05T14:32:33.746Z,98822.25
2023-04-05T14:35:00.728Z,98834.41
2023-04-05T14:37:27.510Z,98822.09
2023-04-05T14:39:54.056Z,98823.84
2023-04-05T14:42:21.603Z,98813.81
2023-04-05T14:44:48.245Z,98826.50
2023-04-05T14:47:14.790Z,98821.22
2023-04-05T14:49:41.388Z,98823.78
2023-04-05T14:52:08.083Z,98823.78
2023-04-05T14:54:34.733Z,98820.19
2023-04-05T14:57:01.533Z,98817.56
2023-04-05T14:59:28.317Z,98819.22
2023-04-05T15:01:54.910Z,98809.72
2023-04-05T15:04:21.550Z,98817.44
2023-04-05T15:06:48.375Z,98800.91
2023-04-05T15:09:15.283Z,98815.09
2023-04-05T15:14:11.509Z,98810.03
2023-04-05T15:16:47.806Z,98816.59
2023-04-05T15:19:14.434Z,98813.94
2023-04-05T15:21:41.211Z,98809.53
2023-04-05T15:26:29.076Z,98817.34
2023-04-05T15:28:55.662Z,98805.94
2023-04-05T15:31:22.200Z,98810.47
2023-04-05T15:33:48.773Z,98790.03
2023-04-05T15:36:15.316Z,98793.63
2023-04-05T15:38:42.019Z,98819.03
2023-04-05T15:41:08.597Z,98809.41
2023-04-05T15:43:35.213Z,98816.28
2023-04-05T15:46:01.966Z,98817.16
2023-04-05T15:48:28.639Z,98813.66
2023-04-05T15:50:55.172Z,98818.09
2023-04-05T15:53:21.799Z,98811.53
2023-04-05T15:55:48.307Z,98821.56
2023-04-05T15:58:15.249Z,98824.09
2023-04-05T16:00:41.763Z,98821.47
2023-04-05T16:03:08.446Z,98808.88
2023-04-05T16:05:34.973Z,98821.47
2023-04-05T16:08:01.728Z,98817.16
2023-04-05T16:10:28.309Z,98820.63
2023-04-05T16:12:54.924Z,98800.44
2023-04-05T16:15:21.924Z,98829.38
2023-04-05T16:17:48.620Z,98829.38
2023-04-05T16:20:17.414Z,98826.84
2023-04-05T16:22:45.117Z,98829.38
2023-04-05T16:25:12.206Z,98831.19
2023-04-05T16:27:39.072Z,98823.56
2023-04-05T16:30:06.314Z,98829.50
2023-04-05T16:32:33.048Z,98833.84
2023-04-05T16:34:59.786Z,98827.06
2023-04-05T16:37:26.509Z,98828.66
2023-04-05T16:39:53.115Z,98828.66
2023-04-05T16:42:19.676Z,98826.03
2023-04-05T16:44:46.248Z,98826.97
2023-04-05T16:47:12.992Z,98832.25
2023-04-05T16:49:39.786Z,98816.16
2023-04-05T16:52:06.536Z,98836.69
2023-04-05T16:54:33.271Z,98838.47
2023-04-05T16:57:00.793Z,98832.34
2023-04-05T16:59:27.770Z,98841.22
2023-04-05T17:01:54.395Z,98824.81
2023-04-05T17:04:21.001Z,98838.69
2023-04-05T17:06:47.691Z,98837.69
2023-04-05T17:09:15.080Z,98840.44
2023-04-05T17:11:41.685Z,98835.38
2023-04-05T17:14:08.213Z,98842.25
2023-04-05T17:16:34.915Z,98831.34
2023-04-05T17:19:01.674Z,98850.16
2023-04-05T17:21:28.466Z,98854.59
2023-04-05T17:23:55.101Z,98840.94
2023-04-05T17:26:23.822Z,98824.00
2023-04-05T17:28:50.407Z,98852.06
2023-04-05T17:31:17.067Z,98850.34
2023-04-05T17:33:44.373Z,98853.88
2023-04-05T17:36:12.504Z,98853.94
2023-04-05T17:38:39.126Z,98857.44
2023-04-05T17:41:08.796Z,98861.78
2023-04-05T17:43:35.636Z,98860.06
2023-04-05T17:46:02.917Z,98863.44
2023-04-05T17:48:29.714Z,98861.56
2023-04-05T17:50:56.588Z,98848.22
2023-04-05T17:53:23.224Z,98863.56
2023-04-05T17:55:49.813Z,98857.84
2023-04-05T17:58:16.388Z,98864.50
2023-04-05T18:00:43.598Z,98811.44
2023-04-05T18:03:12.971Z,98875.91
2023-04-05T18:05:40.089Z,98875.91
2023-04-05T18:08:06.643Z,98876.66
2023-04-05T18:10:33.316Z,98878.34
2023-04-05T18:12:59.937Z,98884.38
2023-04-05T18:15:27.105Z,98873.06
2023-04-05T18:17:53.682Z,98882.41
2023-04-05T18:20:20.269Z,98889.28
2023-04-05T18:22:46.849Z,98883.91
2023-04-05T18:25:13.559Z,98861.97
2023-04-05T18:27:42.336Z,98870.41
2023-04-05T18:30:10.519Z,98870.53
2023-04-05T18:32:38.908Z,98885.31
2023-04-05T18:35:06.267Z,98885.31
2023-04-05T18:37:32.810Z,98834.47
2023-04-05T18:39:59.399Z,98887.75
2023-04-05T18:42:25.976Z,98894.72
2023-04-05T18:44:52.693Z,98890.31
2023-04-05T18:47:19.213Z,98888.50
2023-04-05T18:49:46.265Z,98886.72
2023-04-05T18:52:12.856Z,98888.50
2023-04-05T18:54:39.975Z,98888.41
2023-04-05T18:57:07.086Z,98881.75
2023-04-05T18:59:33.737Z,98891.81
2023-04-05T19:02:00.450Z,98893.63
2023-04-05T19:04:27.161Z,98888.41
2023-04-05T19:06:53.802Z,98888.41
2023-04-05T19:09:21.898Z,98898.13
2023-04-05T19:11:48.437Z,98894.56
2023-04-05T19:14:15.038Z,98890.09
2023-04-05T19:16:42.596Z,98888.34
2023-04-05T19:19:09.389Z,98889.28
2023-04-05T19:21:36.165Z,98887.34
2023-04-05T19:24:02.876Z,98891.81
2023-04-05T19:26:29.423Z,98890.00
2023-04-05T19:28:57.301Z,98875.72
2023-04-05T19:31:23.894Z,98871.84
2023-04-05T19:33:50.920Z,98825.50
2023-04-05T19:36:18.645Z,98881.34
2023-04-05T19:38:48.285Z,98884.00
2023-04-05T19:41:14.944Z,98882.19
2023-04-05T19:43:42.779Z,98882.19
2023-04-05T19:46:12.545Z,98867.13
2023-04-05T19:48:41.999Z,98862.78
2023-04-05T19:51:14.312Z,98881.34
2023-04-05T19:53:41.667Z,98882.19
2023-04-05T19:56:21.666Z,98884.00
2023-04-05T19:59:03.016Z,98878.78
2023-04-05T20:01:36.728Z,98884.00
2023-04-05T20:04:15.434Z,98879.66
2023-04-05T20:06:43.538Z,98883.13
2023-04-05T20:09:14.891Z,98878.78
2023-04-05T20:11:43.978Z,98858.44
2023-04-05T20:14:10.985Z,98881.44
2023-04-05T20:16:38.160Z,98875.31
2023-04-05T20:19:08.277Z,98879.66
2023-04-05T20:21:37.220Z,98865.25
2023-04-05T20:24:08.709Z,98870.97
2023-04-05T20:28:54.104Z,98864.75
2023-04-05T20:31:25.900Z,98871.84
2023-04-05T20:34:09.394Z,98872.78
2023-04-05T20:36:37.930Z,98874.56
2023-04-05T20:39:08.987Z,98874.56
2023-04-05T20:41:36.194Z,98874.75
2023-04-05T20:44:04.010Z,98872.88
2023-04-05T20:46:30.772Z,98872.03
2023-04-05T20:48:58.002Z,98844.34
2023-04-05T20:51:27.792Z,98877.41
2023-04-05T20:53:54.821Z,98878.25
2023-04-05T20:56:21.467Z,98871.47
2023-04-05T20:58:48.134Z,98860.53
2023-04-05T21:01:14.830Z,98885.31
2023-04-05T21:03:42.288Z,98881.81
2023-04-05T21:06:10.268Z,98889.13
2023-04-05T21:08:39.620Z,98866.94
2023-04-05T21:11:07.584Z,98889.00
2023-04-05T21:13:35.470Z,98884.69
2023-04-05T21:16:02.150Z,98882.88
2023-04-05T21:18:28.675Z,98878.56
2023-04-05T21:20:55.492Z,98878.56
2023-04-05T21:23:28.982Z,98884.78
2023-04-05T21:25:56.796Z,98877.81
2023-04-05T21:28:24.608Z,98872.53
2023-04-05T21:30:51.606Z,98882.16
2023-04-05T21:33:18.863Z,98876.06
2023-04-05T21:35:48.469Z,98884.00
2023-04-05T21:38:15.942Z,98864.50
2023-04-05T21:40:44.564Z,98867.72
2023-04-05T21:43:12.491Z,98861.78
2023-04-05T21:45:39.052Z,98871.84
2023-04-05T21:48:06.069Z,98854.16
2023-04-05T21:50:32.720Z,98874.47
2023-04-05T21:52:59.203Z,98874.47
2023-04-05T21:55:25.851Z,98869.19
2023-04-05T21:57:52.452Z,98870.13
2023-04-05T22:00:20.012Z,98858.28
2023-04-05T22:02:47.080Z,98859.03
2023-04-05T22:05:25.620Z,98865.81
2023-04-05T22:07:56.661Z,98868.53
2023-04-05T22:10:23.315Z,98863.44
2023-04-05T22:12:52.564Z,98843.88
2023-04-05T22:15:19.171Z,98866.94
2023-04-05T22:17:45.876Z,98866.09
2023-04-05T22:20:12.681Z,98866.19
2023-04-05T22:22:41.966Z,98860.19
2023-04-05T22:25:09.742Z,98871.47
2023-04-05T22:27:36.354Z,98869.78
2023-04-05T22:30:03.716Z,98863.00
2023-04-05T22:32:30.456Z,98811.25
2023-04-05T22:34:59.768Z,98876.03
2023-04-05T22:37:26.477Z,98870.81
2023-04-05T22:39:52.946Z,98876.09
2023-04-05T22:42:19.557Z,98806.53
2023-04-05T22:44:46.143Z,98874.50
2023-04-05T22:47:12.925Z,98872.91
2023-04-05T22:49:39.427Z,98877.25
2023-04-05T22:52:06.213Z,98865.09
2023-04-05T22:54:32.705Z,98865.00
2023-04-05T22:59:14.159Z,98865.19
2023-04-05T23:01:41.101Z,98870.38
2023-04-05T23:04:07.867Z,98870.47
2023-04-05T23:08:55.933Z,98867.91
2023-04-05T23:11:22.463Z,98874.06
2023-04-05T23:13:49.761Z,98867.25
2023-04-05T23:16:16.924Z,98875.94
2023-04-05T23:18:43.558Z,98868.97
2023-04-05T23:21:11.150Z,98872.53
2023-04-05T23:23:37.659Z,98861.16
2023-04-05T23:26:04.410Z,98858.63
2023-04-05T23:28:30.947Z,98866.53
2023-04-05T23:30:57.597Z,98863.88
2023-04-05T23:33:24.115Z,98862.19
2023-04-05T23:35:51.014Z,98857.84
2023-04-05T23:38:17.555Z,98857.97
2023-04-05T23:40:44.092Z,98850.88
2023-04-05T23:43:11.046Z,98849.19
2023-04-05T23:45:37.726Z,98851.38
2023-04-05T23:48:04.682Z,98854.56
2023-04-05T23:50:31.529Z,98857.19
2023-04-05T23:52:58.215Z,98847.69
2023-04-05T23:55:24.878Z,98852.13
2023-04-05T23:57:52.136Z,98846.00
